Time;durP1;ratioP1;P1;durP2;ratioP2;P2;SDS_P1;SDS_P2;PMS_P1;PMS_P2;Temp;Humidity;BMP_temperature;BMP_pressure;BME280_temperature;BME280_humidity;BME280_pressure;Samples;Min_cycle;Max_cycle;Signal;HPM_P1;HPM_P2
2023/06/02 00:02:55;;;;;;;7.90;4.82;;;;;17.40;96156.00;;;;8202195;28;20338;-58
2023/06/02 00:07:03;;;;;;;7.88;4.45;;;;;17.30;96157.00;;;;8200967;28;20196;-58
2023/06/02 00:11:09;;;;;;;8.25;4.65;;;;;17.20;96160.00;;;;8208696;28;20634;-58
2023/06/02 00:15:18;;;;;;;8.95;4.80;;;;;17.10;96157.00;;;;8203064;28;20302;-56
2023/06/02 00:19:25;;;;;;;9.75;4.90;;;;;17.10;96153.00;;;;8194006;28;20699;-57
2023/06/02 00:23:34;;;;;;;14.32;5.65;;;;;17.10;96153.00;;;;8200665;28;20204;-57
2023/06/02 00:27:44;;;;;;;9.30;4.78;;;;;17.00;96146.00;;;;8194428;28;20286;-58
2023/06/02 00:31:52;;;;;;;8.80;5.13;;;;;16.90;96155.00;;;;8206958;28;20200;-58
2023/06/02 00:35:56;;;;;;;11.43;5.30;;;;;16.80;96155.00;;;;8206614;28;20235;-58
2023/06/02 00:39:59;;;;;;;10.43;5.22;;;;;16.80;96155.00;;;;8209511;28;20786;-57
2023/06/02 00:44:05;;;;;;;7.93;4.53;;;;;16.70;96156.00;;;;8207253;28;20798;-57
2023/06/02 00:48:10;;;;;;;9.15;5.38;;;;;16.50;96156.00;;;;8205672;28;20235;-59
2023/06/02 00:52:16;;;;;;;13.20;5.35;;;;;16.40;96151.00;;;;8188881;28;20208;-58
2023/06/02 00:56:24;;;;;;;13.43;5.38;;;;;16.30;96156.00;;;;8210088;28;20318;-58
2023/06/02 01:00:33;;;;;;;9.95;5.13;;;;;16.10;96153.00;;;;8207973;28;20623;-58
2023/06/02 01:04:52;;;;;;;10.60;5.30;;;;;16.00;96142.00;;;;8205674;28;20220;-57
2023/06/02 01:08:55;;;;;;;8.57;5.13;;;;;15.90;96144.00;;;;8210091;28;20294;-58
2023/06/02 01:12:58;;;;;;;10.02;5.28;;;;;15.90;96144.00;;;;8208430;28;20291;-58
2023/06/02 01:17:02;;;;;;;12.07;6.15;;;;;15.80;96137.00;;;;8199621;28;20249;-58
2023/06/02 01:21:09;;;;;;;11.32;5.90;;;;;15.70;96141.00;;;;8209562;28;20325;-57
2023/06/02 01:25:23;;;;;;;13.43;6.07;;;;;15.60;96141.00;;;;8206870;28;20556;-57
2023/06/02 01:29:27;;;;;;;12.13;5.70;;;;;15.60;96140.00;;;;8205757;28;20203;-58
2023/06/02 01:33:35;;;;;;;11.57;5.60;;;;;15.50;96142.00;;;;8211609;28;20314;-57
2023/06/02 01:37:42;;;;;;;9.48;5.80;;;;;15.40;96142.00;;;;8196998;28;20291;-58
2023/06/02 01:41:51;;;;;;;11.07;5.85;;;;;15.40;96132.00;;;;8198236;28;20192;-57
2023/06/02 01:45:58;;;;;;;12.30;6.07;;;;;15.30;96135.00;;;;8203298;28;20634;-58
2023/06/02 01:50:05;;;;;;;20.17;6.70;;;;;15.30;96130.00;;;;8197875;28;20313;-58
2023/06/02 01:54:08;;;;;;;10.13;5.88;;;;;15.30;96128.00;;;;8209972;28;20263;-58
2023/06/02 01:58:13;;;;;;;11.75;6.13;;;;;15.20;96123.00;;;;8201696;28;20822;-59
2023/06/02 02:02:18;;;;;;;13.27;6.78;;;;;15.20;96119.00;;;;8199048;28;20649;-58
2023/06/02 02:06:24;;;;;;;10.68;6.45;;;;;15.20;96119.00;;;;8198623;28;20575;-58
2023/06/02 02:10:27;;;;;;;12.20;6.43;;;;;15.10;96109.00;;;;8202740;28;20238;-58
2023/06/02 02:14:32;;;;;;;12.38;6.75;;;;;15.10;96117.00;;;;8204930;28;20696;-58
2023/06/02 02:18:41;;;;;;;16.23;7.05;;;;;15.00;96120.00;;;;8188179;28;20701;-58
2023/06/02 02:22:48;;;;;;;13.32;6.38;;;;;15.00;96116.00;;;;8215006;28;20231;-58
2023/06/02 02:26:51;;;;;;;15.52;7.32;;;;;15.00;96121.00;;;;8222644;28;20212;-58
2023/06/02 02:30:56;;;;;;;11.38;6.40;;;;;14.90;96122.00;;;;8200524;28;20291;-58
2023/06/02 02:35:03;;;;;;;16.73;6.85;;;;;14.90;96123.00;;;;8200050;28;20235;-58
2023/06/02 02:39:08;;;;;;;20.10;7.15;;;;;14.80;96124.00;;;;8196461;28;20230;-58
2023/06/02 02:43:12;;;;;;;13.52;6.63;;;;;14.80;96120.00;;;;8199812;28;20291;-58
2023/06/02 02:47:17;;;;;;;13.10;6.38;;;;;14.70;96125.00;;;;8200248;28;20238;-58
2023/06/02 02:51:22;;;;;;;12.02;7.13;;;;;14.70;96122.00;;;;8215386;28;20216;-58
2023/06/02 02:55:32;;;;;;;12.63;7.32;;;;;14.70;96119.00;;;;8207737;28;20763;-58
2023/06/02 02:59:36;;;;;;;15.38;7.70;;;;;14.60;96124.00;;;;8219175;28;21056;-58
2023/06/02 03:03:45;;;;;;;21.40;8.45;;;;;14.60;96119.00;;;;8294696;22;20224;-96
2023/06/02 03:07:51;;;;;;;14.63;8.50;;;;;14.50;96124.00;;;;8292189;28;20644;-95
2023/06/02 03:11:58;;;;;;;14.07;8.57;;;;;14.50;96132.00;;;;8293731;28;20238;-96
2023/06/02 03:16:08;;;;;;;17.10;8.38;;;;;14.40;96134.00;;;;8308060;22;20229;-60
2023/06/02 03:20:13;;;;;;;16.38;8.85;;;;;14.30;96138.00;;;;8230336;28;20221;-59
2023/06/02 03:24:22;;;;;;;19.77;8.90;;;;;14.20;96133.00;;;;8235198;28;20234;-60
2023/06/02 03:28:25;;;;;;;20.55;8.20;;;;;14.20;96138.00;;;;8237000;28;20199;-59
2023/06/02 03:32:29;;;;;;;17.05;9.32;;;;;14.10;96132.00;;;;8242526;28;20299;-60
2023/06/02 03:36:35;;;;;;;22.80;9.18;;;;;14.10;96130.00;;;;8240502;28;20240;-59
2023/06/02 03:40:38;;;;;;;17.40;9.52;;;;;14.00;96137.00;;;;8233796;28;20237;-60
2023/06/02 03:44:41;;;;;;;17.40;9.70;;;;;14.00;96144.00;;;;8237655;28;20296;-59
2023/06/02 03:48:44;;;;;;;17.15;9.65;;;;;14.00;96147.00;;;;8241709;28;20209;-60
2023/06/02 03:52:51;;;;;;;18.25;9.70;;;;;14.00;96152.00;;;;8232916;28;20634;-58
2023/06/02 03:56:57;;;;;;;16.00;8.75;;;;;14.00;96144.00;;;;8234876;28;20729;-58
2023/06/02 04:01:01;;;;;;;17.42;9.10;;;;;14.10;96148.00;;;;8213963;28;20236;-58
2023/06/02 04:05:07;;;;;;;16.60;10.00;;;;;14.20;96161.00;;;;8242496;28;20733;-58
2023/06/02 04:09:17;;;;;;;14.05;8.95;;;;;14.40;96174.00;;;;8233019;28;20220;-58
2023/06/02 04:13:20;;;;;;;18.73;8.98;;;;;14.50;96171.00;;;;8243969;28;20206;-58
2023/06/02 04:17:25;;;;;;;14.98;7.85;;;;;14.60;96175.00;;;;8232006;28;20238;-58
2023/06/02 04:21:32;;;;;;;17.67;8.73;;;;;14.70;96183.00;;;;8226610;28;20206;-58
2023/06/02 04:25:37;;;;;;;16.70;9.07;;;;;14.80;96178.00;;;;8217592;28;20207;-59
2023/06/02 04:29:57;;;;;;;12.71;6.80;;;;;15.00;96181.00;;;;4413006;28;10022813;-60
2023/06/02 04:34:13;;;;;;;22.63;9.98;;;;;15.10;96187.00;;;;5697601;28;10002023;-58
2023/06/02 04:38:16;;;;;;;13.43;8.13;;;;;15.40;96185.00;;;;3384263;28;10002111;-58
2023/06/02 04:42:20;;;;;;;16.10;8.85;;;;;15.60;96189.00;;;;8239603;28;20230;-59
2023/06/02 04:46:25;;;;;;;16.08;8.30;;;;;15.80;96190.00;;;;8238513;28;20575;-58
2023/06/02 04:50:28;;;;;;;12.27;8.77;;;;;15.90;96192.00;;;;8240135;28;20242;-59
2023/06/02 04:54:31;;;;;;;13.27;8.98;;;;;16.10;96197.00;;;;8235055;28;20230;-60
2023/06/02 04:58:36;;;;;;;18.45;8.32;;;;;16.30;96185.00;;;;8235672;28;20230;-59
2023/06/02 05:02:43;;;;;;;19.77;8.55;;;;;16.40;96190.00;;;;8237485;28;20221;-58
2023/06/02 05:06:47;;;;;;;33.75;8.95;;;;;16.40;96186.00;;;;8238284;28;20262;-58
2023/06/02 05:10:52;;;;;;;13.63;8.43;;;;;16.50;96189.00;;;;8232132;28;20296;-58
2023/06/02 05:14:59;;;;;;;14.40;8.75;;;;;16.50;96186.00;;;;8227222;28;20371;-59
2023/06/02 05:19:06;;;;;;;13.23;8.93;;;;;16.60;96186.00;;;;8227830;28;20300;-58
2023/06/02 05:23:10;;;;;;;17.42;8.90;;;;;16.60;96188.00;;;;8232775;28;20206;-58
2023/06/02 05:27:15;;;;;;;18.13;9.02;;;;;16.70;96190.00;;;;8229848;28;20744;-59
2023/06/02 05:31:20;;;;;;;14.82;8.73;;;;;16.90;96196.00;;;;8236409;28;20206;-60
2023/06/02 05:35:23;;;;;;;14.18;7.85;;;;;16.80;96192.00;;;;8236565;28;20243;-59
2023/06/02 05:39:34;;;;;;;14.98;8.43;;;;;16.80;96205.00;;;;8236594;28;20274;-58
2023/06/02 05:43:40;;;;;;;13.52;8.68;;;;;16.90;96186.00;;;;8229837;28;20206;-59
2023/06/02 05:47:47;;;;;;;14.98;8.55;;;;;17.20;96196.00;;;;8239990;28;20720;-58
2023/06/02 05:51:52;;;;;;;17.10;8.70;;;;;17.60;96191.00;;;;8241631;28;20686;-59
2023/06/02 05:55:58;;;;;;;13.40;8.25;;;;;18.10;96191.00;;;;8240471;28;20663;-59
2023/06/02 06:00:06;;;;;;;15.80;9.32;;;;;18.30;96195.00;;;;8227896;28;20294;-59
2023/06/02 06:04:12;;;;;;;19.20;8.25;;;;;18.70;96201.00;;;;8244332;28;20219;-58
2023/06/02 06:08:15;;;;;;;13.45;7.97;;;;;19.30;96204.00;;;;8237429;28;20199;-59
2023/06/02 06:12:19;;;;;;;19.77;8.93;;;;;19.60;96204.00;;;;8232906;28;20194;-58
2023/06/02 06:16:22;;;;;;;11.20;8.32;;;;;19.80;96207.00;;;;8243292;28;20705;-59
2023/06/02 06:20:30;;;;;;;12.52;8.63;;;;;19.60;96209.00;;;;8242470;28;20231;-58
2023/06/02 06:24:37;;;;;;;11.45;8.27;;;;;19.60;96204.00;;;;8232701;28;20202;-59
2023/06/02 06:28:43;;;;;;;17.23;8.05;;;;;20.20;96208.00;;;;8236269;28;20648;-59
2023/06/02 06:32:49;;;;;;;14.45;8.65;;;;;20.60;96219.00;;;;8232326;28;20561;-58
2023/06/02 06:36:54;;;;;;;17.42;8.35;;;;;20.90;96227.00;;;;8235000;28;20306;-59
2023/06/02 06:40:57;;;;;;;15.90;8.93;;;;;21.00;96230.00;;;;8236303;28;20207;-59
2023/06/02 06:45:03;;;;;;;13.98;8.35;;;;;21.20;96227.00;;;;8233254;28;20210;-58
2023/06/02 06:49:06;;;;;;;12.18;8.63;;;;;21.50;96233.00;;;;8224880;28;20537;-59
2023/06/02 06:53:11;;;;;;;13.15;8.93;;;;;21.60;96233.00;;;;8243686;28;20227;-59
2023/06/02 06:57:17;;;;;;;14.82;9.05;;;;;21.60;96233.00;;;;8245428;28;20269;-59
2023/06/02 07:01:20;;;;;;;18.60;8.90;;;;;21.70;96243.00;;;;8232530;28;20196;-58
2023/06/02 07:05:23;;;;;;;13.10;8.32;;;;;21.80;96242.00;;;;8233281;28;20314;-58
2023/06/02 07:09:30;;;;;;;12.70;8.07;;;;;22.10;96248.00;;;;8246077;28;20219;-58
2023/06/02 07:13:33;;;;;;;11.73;8.25;;;;;22.10;96254.00;;;;8238606;28;20791;-59
2023/06/02 07:17:36;;;;;;;12.77;7.50;;;;;22.50;96255.00;;;;8240135;28;20233;-59
2023/06/02 07:21:40;;;;;;;13.98;8.02;;;;;22.90;96260.00;;;;8232766;28;20206;-59
2023/06/02 07:25:49;;;;;;;19.02;8.98;;;;;22.90;96248.00;;;;8244549;28;20199;-59
2023/06/02 07:29:55;;;;;;;11.85;8.82;;;;;23.30;96257.00;;;;8236148;28;20303;-59
2023/06/02 07:33:58;;;;;;;11.07;8.10;;;;;23.30;96263.00;;;;8236894;28;20199;-58
2023/06/02 07:38:01;;;;;;;18.80;8.88;;;;;23.20;96262.00;;;;8229683;28;20804;-58
2023/06/02 07:42:09;;;;;;;15.20;8.93;;;;;23.00;96259.00;;;;8238081;28;20206;-60
2023/06/02 07:46:12;;;;;;;12.57;8.75;;;;;23.10;96262.00;;;;8234853;28;20249;-59
2023/06/02 07:50:19;;;;;;;13.80;8.63;;;;;23.20;96263.00;;;;8224903;28;20550;-59
2023/06/02 07:54:27;;;;;;;16.98;8.23;;;;;23.40;96261.00;;;;8229744;28;20207;-58
2023/06/02 07:58:35;;;;;;;12.20;7.80;;;;;23.50;96279.00;;;;8231026;28;20233;-59
2023/06/02 08:02:40;;;;;;;11.07;8.07;;;;;23.70;96279.00;;;;8226707;28;20819;-59
2023/06/02 08:06:48;;;;;;;12.40;7.88;;;;;23.70;96278.00;;;;8228941;28;20203;-59
2023/06/02 08:10:52;;;;;;;12.10;8.38;;;;;24.00;96274.00;;;;8222101;28;20242;-59
2023/06/02 08:14:59;;;;;;;13.35;8.48;;;;;24.10;96273.00;;;;8233334;28;20207;-60
2023/06/02 08:19:08;;;;;;;13.07;7.43;;;;;24.20;96270.00;;;;8228118;28;20231;-58
2023/06/02 08:23:14;;;;;;;18.17;8.40;;;;;24.50;96277.00;;;;8214631;28;20203;-59
2023/06/02 08:27:18;;;;;;;18.30;8.90;;;;;24.50;96275.00;;;;8211557;28;20203;-59
2023/06/02 08:31:23;;;;;;;11.43;7.95;;;;;24.50;96283.00;;;;8228619;28;20305;-59
2023/06/02 08:35:28;;;;;;;13.38;8.30;;;;;24.50;96283.00;;;;8231766;28;20322;-59
2023/06/02 08:39:31;;;;;;;10.75;7.18;;;;;24.70;96291.00;;;;8231695;28;21123;-58
2023/06/02 08:43:37;;;;;;;16.50;8.77;;;;;25.00;96288.00;;;;8230000;28;20205;-58
2023/06/02 08:47:44;;;;;;;14.18;7.60;;;;;25.10;96285.00;;;;8223890;28;20617;-58
2023/06/02 08:51:52;;;;;;;14.75;7.22;;;;;25.20;96293.00;;;;8229201;28;20206;-59
2023/06/02 08:55:57;;;;;;;12.32;7.82;;;;;25.00;96288.00;;;;8233672;28;20289;-58
2023/06/02 09:00:04;;;;;;;10.43;7.22;;;;;25.30;96286.00;;;;8225183;28;20198;-59
2023/06/02 09:04:11;;;;;;;16.90;7.05;;;;;25.30;96280.00;;;;8230010;28;20342;-59
2023/06/02 09:08:15;;;;;;;10.25;7.55;;;;;25.30;96295.00;;;;8234745;28;20580;-59
2023/06/02 09:12:21;;;;;;;13.05;7.55;;;;;25.40;96290.00;;;;8236555;28;20206;-59
2023/06/02 09:16:36;;;;;;;13.70;7.07;;;;;25.30;96286.00;;;;8224260;28;20239;-60
2023/06/02 09:20:47;;;;;;;12.68;6.85;;;;;25.40;96286.00;;;;8233378;28;20195;-59
2023/06/02 09:24:52;;;;;;;12.73;7.38;;;;;25.90;96283.00;;;;8232028;28;20217;-59
2023/06/02 09:29:02;;;;;;;9.15;6.82;;;;;26.40;96286.00;;;;8227026;28;20428;-59
2023/06/02 09:33:08;;;;;;;14.18;7.22;;;;;26.70;96287.00;;;;8234694;28;20619;-59
2023/06/02 09:37:16;;;;;;;13.40;6.88;;;;;27.00;96293.00;;;;8227304;28;20746;-57
2023/06/02 09:41:28;;;;;;;15.40;7.22;;;;;27.10;96290.00;;;;8232668;28;20242;-60
2023/06/02 09:45:31;;;;;;;11.95;7.68;;;;;27.30;96288.00;;;;8232359;28;20298;-58
2023/06/02 09:49:41;;;;;;;10.68;7.00;;;;;27.70;96294.00;;;;8230684;28;20269;-59
2023/06/02 09:53:50;;;;;;;9.68;6.60;;;;;27.20;96289.00;;;;8235899;28;20299;-59
2023/06/02 09:57:59;;;;;;;8.68;6.60;;;;;27.80;96283.00;;;;8235430;28;21396;-59
2023/06/02 10:02:02;;;;;;;10.68;6.90;;;;;28.10;96289.00;;;;8228453;28;21971;-59
2023/06/02 10:06:13;;;;;;;13.55;7.30;;;;;28.50;96280.00;;;;8228982;28;20250;-58
2023/06/02 10:10:35;;;;;;;9.98;6.95;;;;;28.50;96273.00;;;;8227743;28;20896;-59
2023/06/02 10:15:19;;;;;;;8.82;6.70;;;;;28.00;96277.00;;;;8231249;28;20278;-59
2023/06/02 10:19:55;;;;;;;6.15;5.07;;;;;28.90;96277.00;;;;8216213;28;20238;-59
2023/06/02 10:24:07;;;;;;;9.50;5.28;;;;;29.00;96286.00;;;;8224148;28;20513;-58
2023/06/02 10:28:16;;;;;;;8.30;5.30;;;;;29.20;96283.00;;;;8222944;28;20196;-58
2023/06/02 10:32:24;;;;;;;12.63;5.82;;;;;29.60;96284.00;;;;8231863;28;20235;-58
2023/06/02 10:36:28;;;;;;;8.32;6.07;;;;;29.60;96284.00;;;;8229850;28;20262;-57
2023/06/02 10:40:49;;;;;;;10.27;5.82;;;;;30.10;96276.00;;;;8220448;28;20775;-58
2023/06/02 10:45:28;;;;;;;10.43;5.95;;;;;30.70;96277.00;;;;8228669;28;20210;-59
2023/06/02 10:49:57;;;;;;;8.75;5.82;;;;;30.40;96273.00;;;;8239845;28;20195;-58
2023/06/02 10:54:16;;;;;;;6.43;4.60;;;;;29.90;96270.00;;;;8245436;28;20862;-59
2023/06/02 10:58:20;;;;;;;20.40;5.80;;;;;31.00;96267.00;;;;8222048;28;20262;-58
2023/06/02 11:02:44;;;;;;;6.00;5.05;;;;;30.80;96264.00;;;;8237836;28;20571;-59
2023/06/02 11:07:21;;;;;;;7.78;4.78;;;;;30.80;96270.00;;;;8225879;28;20288;-59
2023/06/02 11:11:53;;;;;;;6.10;4.60;;;;;31.10;96265.00;;;;8236471;28;20294;-59
2023/06/02 11:21:21;;;;;;;8.65;5.57;;;;;31.10;96267.00;;;;8234837;28;20211;-58
2023/06/02 11:25:29;;;;;;;7.53;4.72;;;;;31.30;96267.00;;;;8228491;28;20251;-59
2023/06/02 11:29:32;;;;;;;7.07;4.75;;;;;31.40;96272.00;;;;8229632;28;20249;-58
2023/06/02 11:33:41;;;;;;;7.38;5.18;;;;;31.20;96270.00;;;;8232707;28;20298;-60
2023/06/02 11:37:48;;;;;;;6.57;4.75;;;;;31.00;96274.00;;;;8230773;28;20222;-58
2023/06/02 11:42:02;;;;;;;6.80;4.70;;;;;30.40;96271.00;;;;8227538;28;20199;-59
2023/06/02 11:46:07;;;;;;;5.85;4.65;;;;;30.40;96259.00;;;;8230388;28;20203;-58
2023/06/02 11:50:21;;;;;;;9.40;5.20;;;;;31.40;96255.00;;;;8227217;28;21006;-60
2023/06/02 11:54:24;;;;;;;7.93;4.88;;;;;31.90;96254.00;;;;8227767;28;20217;-58
2023/06/02 11:58:32;;;;;;;20.20;5.95;;;;;32.30;96253.00;;;;8231640;28;20849;-59
2023/06/02 12:02:38;;;;;;;8.32;4.80;;;;;32.10;96253.00;;;;8230843;28;20669;-59
2023/06/02 12:06:47;;;;;;;8.10;4.68;;;;;31.60;96247.00;;;;8233257;28;20203;-59
2023/06/02 12:10:50;;;;;;;5.60;4.88;;;;;31.40;96254.00;;;;8223037;28;20211;-60
2023/06/02 12:14:56;;;;;;;5.80;4.72;;;;;31.00;96247.00;;;;8225219;28;20410;-60
2023/06/02 12:19:13;;;;;;;5.18;4.68;;;;;31.40;96249.00;;;;8237087;28;20254;-59
2023/06/02 12:23:16;;;;;;;6.60;4.30;;;;;31.40;96250.00;;;;8233698;28;20342;-57
2023/06/02 12:27:23;;;;;;;11.45;5.35;;;;;31.40;96248.00;;;;8238747;28;20279;-59
2023/06/02 12:31:29;;;;;;;8.10;4.80;;;;;32.10;96251.00;;;;8231837;28;20199;-59
2023/06/02 12:35:35;;;;;;;8.30;4.80;;;;;31.30;96248.00;;;;8234595;28;20211;-59
2023/06/02 12:39:42;;;;;;;6.28;4.75;;;;;30.70;96248.00;;;;8223549;28;20381;-58
2023/06/02 12:43:49;;;;;;;6.63;5.03;;;;;30.20;96248.00;;;;8224167;28;20202;-59
2023/06/02 12:47:57;;;;;;;6.10;5.22;;;;;29.60;96252.00;;;;8226469;28;20234;-59
2023/06/02 12:52:01;;;;;;;10.02;5.47;;;;;29.10;96251.00;;;;8234766;28;20211;-59
2023/06/02 12:56:05;;;;;;;11.88;4.85;;;;;28.50;96248.00;;;;8225620;28;20207;-59
2023/06/02 13:00:10;;;;;;;7.45;5.00;;;;;28.00;96250.00;;;;8244392;28;20637;-59
2023/06/02 13:04:18;;;;;;;5.93;4.68;;;;;27.90;96246.00;;;;8236851;28;20219;-59
2023/06/02 13:08:24;;;;;;;5.90;4.82;;;;;28.00;96250.00;;;;8235005;28;20222;-59
2023/06/02 13:12:31;;;;;;;8.77;5.28;;;;;28.40;96240.00;;;;8234398;28;20211;-58
2023/06/02 13:16:34;;;;;;;6.20;5.05;;;;;29.50;96243.00;;;;8235141;28;20209;-58
2023/06/02 13:20:39;;;;;;;6.68;4.70;;;;;30.20;96240.00;;;;8242520;28;20487;-59
2023/06/02 13:24:46;;;;;;;7.88;4.60;;;;;30.00;96244.00;;;;8233484;28;20199;-58
2023/06/02 13:28:51;;;;;;;5.55;4.40;;;;;30.00;96234.00;;;;8239507;28;20225;-59
2023/06/02 13:32:57;;;;;;;6.25;5.10;;;;;30.50;96232.00;;;;8229323;28;20203;-60
2023/06/02 13:37:01;;;;;;;8.38;5.00;;;;;30.60;96232.00;;;;8228852;28;20246;-60
2023/06/02 13:41:04;;;;;;;6.97;4.35;;;;;30.50;96240.00;;;;8222664;28;20238;-60
2023/06/02 13:45:09;;;;;;;4.38;3.92;;;;;30.20;96232.00;;;;8231429;28;20207;-60
2023/06/02 13:49:16;;;;;;;8.73;4.50;;;;;30.30;96234.00;;;;8229756;28;20242;-59
2023/06/02 13:53:21;;;;;;;7.38;4.78;;;;;30.80;96227.00;;;;8233272;28;20653;-58
2023/06/02 13:57:24;;;;;;;9.40;5.13;;;;;31.10;96235.00;;;;8234281;28;20231;-60
2023/06/02 14:01:28;;;;;;;9.07;4.72;;;;;30.60;96246.00;;;;8229869;28;20704;-59
2023/06/02 14:05:34;;;;;;;7.88;4.25;;;;;30.20;96230.00;;;;8227086;28;20226;-59
2023/06/02 14:09:41;;;;;;;5.07;4.57;;;;;30.40;96231.00;;;;8236238;28;20202;-59
2023/06/02 14:13:47;;;;;;;6.22;4.60;;;;;30.40;96228.00;;;;8227041;28;20729;-60
2023/06/02 14:17:51;;;;;;;6.25;4.28;;;;;30.40;96233.00;;;;8239356;28;20218;-59
2023/06/02 14:21:59;;;;;;;4.70;4.03;;;;;30.90;96233.00;;;;8235171;28;20294;-59
2023/06/02 14:26:07;;;;;;;4.55;3.65;;;;;31.00;96232.00;;;;8232438;28;20206;-60
2023/06/02 14:30:10;;;;;;;5.70;4.03;;;;;31.20;96235.00;;;;8234830;28;20242;-60
2023/06/02 14:34:18;;;;;;;5.70;4.38;;;;;30.90;96219.00;;;;8234522;28;20290;-60
2023/06/02 14:38:21;;;;;;;8.93;4.97;;;;;30.70;96228.00;;;;8232611;28;20329;-62
2023/06/02 14:42:30;;;;;;;15.32;6.13;;;;;30.30;96227.00;;;;8233676;28;20810;-57
2023/06/02 14:46:34;;;;;;;5.88;4.35;;;;;30.60;96234.00;;;;8229165;28;20650;-58
2023/06/02 14:50:37;;;;;;;7.13;4.03;;;;;30.50;96228.00;;;;8240843;28;20708;-58
2023/06/02 14:54:43;;;;;;;11.50;4.13;;;;;30.60;96222.00;;;;8247467;28;20621;-57
2023/06/02 14:58:47;;;;;;;7.28;4.30;;;;;30.70;96220.00;;;;8232546;28;20223;-58
2023/06/02 15:03:02;;;;;;;8.10;3.75;;;;;30.70;96227.00;;;;8235156;28;20704;-58
2023/06/02 15:07:12;;;;;;;4.20;3.80;;;;;30.40;96210.00;;;;8243407;28;20641;-59
2023/06/02 15:11:20;;;;;;;8.13;3.60;;;;;30.00;96208.00;;;;8235058;28;20199;-58
2023/06/02 15:15:25;;;;;;;5.47;4.47;;;;;29.70;96219.00;;;;8239952;28;20402;-59
2023/06/02 15:19:28;;;;;;;4.70;3.72;;;;;29.40;96215.00;;;;8233242;28;20237;-59
2023/06/02 15:23:31;;;;;;;14.45;4.28;;;;;29.20;96210.00;;;;8236899;28;20192;-59
2023/06/02 15:27:35;;;;;;;10.30;4.28;;;;;29.20;96209.00;;;;8231999;28;20230;-58
2023/06/02 15:31:41;;;;;;;8.85;4.03;;;;;29.40;96208.00;;;;8238942;28;20258;-58
2023/06/02 15:35:47;;;;;;;9.10;4.63;;;;;29.30;96209.00;;;;8236259;28;20596;-58
2023/06/02 15:39:51;;;;;;;8.38;4.38;;;;;29.20;96200.00;;;;8242201;28;20259;-58
2023/06/02 15:43:55;;;;;;;5.95;4.45;;;;;29.20;96202.00;;;;8246216;28;20226;-58
2023/06/02 15:48:03;;;;;;;4.97;4.18;;;;;29.20;96196.00;;;;8225507;28;20200;-60
2023/06/02 15:52:09;;;;;;;6.85;4.38;;;;;29.70;96209.00;;;;8231273;28;20230;-58
2023/06/02 15:56:12;;;;;;;80.47;7.75;;;;;30.00;96201.00;;;;8231596;28;20717;-58
2023/06/02 16:00:19;;;;;;;7.03;4.10;;;;;29.80;96208.00;;;;8231385;28;21684;-57
2023/06/02 16:04:24;;;;;;;4.18;3.78;;;;;29.50;96208.00;;;;8232017;28;20329;-59
2023/06/02 16:08:27;;;;;;;6.78;4.15;;;;;29.50;96203.00;;;;8235071;28;20246;-58
2023/06/02 16:12:31;;;;;;;4.38;3.95;;;;;29.40;96200.00;;;;8235187;28;20614;-59
2023/06/02 16:16:34;;;;;;;9.02;4.20;;;;;29.50;96193.00;;;;8221797;28;20215;-58
2023/06/02 16:21:02;;;;;;;5.95;4.60;;;;;29.50;96196.00;;;;8229231;28;20314;-59
2023/06/02 16:25:09;;;;;;;5.38;4.28;;;;;29.60;96196.00;;;;8225412;28;20196;-59
2023/06/02 16:29:13;;;;;;;5.55;4.05;;;;;29.20;96193.00;;;;8226820;28;20726;-59
2023/06/02 16:33:16;;;;;;;8.98;4.20;;;;;28.90;96195.00;;;;8230709;28;20862;-59
2023/06/02 16:37:25;;;;;;;5.80;4.22;;;;;28.90;96193.00;;;;8234174;28;20345;-59
2023/06/02 16:41:29;;;;;;;7.03;4.00;;;;;29.10;96196.00;;;;8233398;28;20228;-58
2023/06/02 16:45:35;;;;;;;6.93;4.32;;;;;29.50;96199.00;;;;8238281;28;20717;-58
2023/06/02 16:49:39;;;;;;;6.13;4.80;;;;;29.50;96205.00;;;;8237247;28;20198;-60
2023/06/02 16:53:43;;;;;;;7.40;4.30;;;;;29.70;96209.00;;;;8231574;28;20282;-59
2023/06/02 16:57:50;;;;;;;7.47;4.40;;;;;29.20;96218.00;;;;8235493;28;20203;-59
2023/06/02 17:01:54;;;;;;;7.00;5.18;;;;;28.50;96217.00;;;;8224615;28;20231;-59
2023/06/02 17:05:59;;;;;;;12.55;4.63;;;;;27.60;96220.00;;;;8222496;28;20278;-60
2023/06/02 17:10:09;;;;;;;10.05;5.03;;;;;26.70;96211.00;;;;8228691;28;20334;-58
2023/06/02 17:14:16;;;;;;;9.60;5.60;;;;;26.50;96211.00;;;;8226060;28;20205;-60
2023/06/02 17:18:19;;;;;;;9.95;4.78;;;;;26.00;96231.00;;;;8231572;28;20203;-58
2023/06/02 17:22:23;;;;;;;10.93;5.07;;;;;25.30;96219.00;;;;8236712;28;20226;-58
2023/06/02 17:26:30;;;;;;;9.57;5.15;;;;;24.90;96214.00;;;;8232093;28;20196;-59
2023/06/02 17:30:35;;;;;;;10.40;5.38;;;;;24.50;96217.00;;;;8224262;28;21947;-60
2023/06/02 17:34:39;;;;;;;7.60;5.47;;;;;24.40;96211.00;;;;8227422;28;20303;-59
2023/06/02 17:38:47;;;;;;;9.45;5.07;;;;;24.20;96216.00;;;;8227270;28;20250;-59
2023/06/02 17:42:53;;;;;;;10.93;4.90;;;;;23.90;96218.00;;;;8234423;28;20204;-58
2023/06/02 17:46:57;;;;;;;11.65;5.57;;;;;23.50;96227.00;;;;8216101;28;20238;-59
2023/06/02 17:51:00;;;;;;;8.25;5.22;;;;;23.60;96246.00;;;;8220701;28;20203;-59
2023/06/02 17:55:05;;;;;;;10.23;5.38;;;;;23.30;96248.00;;;;8221307;28;20697;-59
2023/06/02 17:59:11;;;;;;;11.63;4.75;;;;;23.00;96242.00;;;;8225293;28;20246;-60
2023/06/02 18:03:18;;;;;;;8.65;4.72;;;;;22.70;96254.00;;;;8230040;28;20731;-60
2023/06/02 18:07:25;;;;;;;9.18;4.72;;;;;22.40;96259.00;;;;8229615;28;20199;-59
2023/06/02 18:11:28;;;;;;;11.93;5.45;;;;;22.20;96261.00;;;;8233122;28;20298;-59
2023/06/02 18:15:36;;;;;;;9.05;5.45;;;;;22.00;96261.00;;;;8226308;28;20679;-58
2023/06/02 18:19:47;;;;;;;10.95;5.43;;;;;21.70;96280.00;;;;8223430;28;20239;-59
2023/06/02 18:23:52;;;;;;;16.63;5.55;;;;;21.50;96281.00;;;;8225740;28;20700;-59
2023/06/02 18:28:00;;;;;;;9.23;5.63;;;;;21.30;96281.00;;;;8223130;28;20938;-58
2023/06/02 18:32:04;;;;;;;6.95;4.80;;;;;21.10;96290.00;;;;8222393;28;20326;-59
2023/06/02 18:36:09;;;;;;;12.38;5.18;;;;;20.90;96293.00;;;;8221111;28;20203;-59
2023/06/02 18:40:14;;;;;;;10.70;5.60;;;;;20.70;96309.00;;;;8223393;28;20234;-58
2023/06/02 18:44:17;;;;;;;7.07;5.28;;;;;20.60;96312.00;;;;8228597;28;20253;-59
2023/06/02 18:48:21;;;;;;;15.10;5.07;;;;;20.40;96324.00;;;;8226782;28;20278;-60
2023/06/02 18:52:26;;;;;;;9.30;5.43;;;;;20.20;96325.00;;;;8228782;28;20206;-59
2023/06/02 18:56:31;;;;;;;9.80;4.60;;;;;20.10;96321.00;;;;8225346;28;20210;-58
2023/06/02 19:00:36;;;;;;;10.85;5.35;;;;;19.90;96330.00;;;;8232348;28;21943;-59
2023/06/02 19:04:39;;;;;;;9.18;4.60;;;;;19.80;96330.00;;;;8227732;28;20230;-59
2023/06/02 19:08:44;;;;;;;11.95;4.70;;;;;19.60;96343.00;;;;8227477;28;20838;-59
2023/06/02 19:12:50;;;;;;;13.98;5.63;;;;;19.50;96336.00;;;;8232477;28;20289;-59
2023/06/02 19:16:53;;;;;;;9.55;5.03;;;;;19.40;96340.00;;;;8235609;28;20210;-60
2023/06/02 19:21:04;;;;;;;11.45;5.10;;;;;19.20;96349.00;;;;8234750;28;20231;-59
2023/06/02 19:25:11;;;;;;;11.88;5.25;;;;;19.00;96339.00;;;;8230838;28;20250;-59
2023/06/02 19:29:16;;;;;;;9.57;5.07;;;;;18.90;96353.00;;;;8231467;28;20207;-60
2023/06/02 19:33:19;;;;;;;10.13;5.25;;;;;18.80;96354.00;;;;8231488;28;20644;-59
2023/06/02 19:37:27;;;;;;;9.90;4.55;;;;;18.60;96354.00;;;;8231327;28;20248;-59
2023/06/02 19:41:31;;;;;;;10.98;5.10;;;;;18.50;96353.00;;;;8241096;28;20318;-59
2023/06/02 19:45:36;;;;;;;10.10;4.60;;;;;18.40;96357.00;;;;8240026;28;20735;-60
2023/06/02 19:49:42;;;;;;;7.82;4.30;;;;;18.30;96362.00;;;;8231246;28;20202;-59
2023/06/02 19:53:47;;;;;;;13.48;4.50;;;;;18.20;96362.00;;;;8224856;28;20204;-59
2023/06/02 19:57:54;;;;;;;7.85;4.63;;;;;18.20;96372.00;;;;8226675;28;20632;-59
2023/06/02 20:02:02;;;;;;;7.75;3.90;;;;;18.10;96375.00;;;;8234694;28;20317;-59
2023/06/02 20:06:10;;;;;;;7.40;4.20;;;;;18.00;96372.00;;;;8242270;28;20950;-59
2023/06/02 20:10:13;;;;;;;13.07;4.35;;;;;17.80;96380.00;;;;8226929;28;20683;-59
2023/06/02 20:14:18;;;;;;;10.57;3.65;;;;;17.80;96379.00;;;;8222278;28;20222;-60
2023/06/02 20:18:21;;;;;;;11.77;3.80;;;;;17.70;96386.00;;;;8228235;28;20203;-59
2023/06/02 20:22:25;;;;;;;7.38;3.22;;;;;17.60;96397.00;;;;8226449;28;20332;-58
2023/06/02 20:26:29;;;;;;;9.68;3.55;;;;;17.50;96395.00;;;;8227333;28;20195;-60
2023/06/02 20:30:41;;;;;;;11.27;4.00;;;;;17.40;96396.00;;;;8230836;28;20198;-59